Time;durP1;ratioP1;P1;durP2;ratioP2;P2;SDS_P1;SDS_P2;PMS_P1;PMS_P2;Temp;Humidity;BMP_temperature;BMP_pressure;BME280_temperature;BME280_humidity;BME280_pressure;Samples;Min_cycle;Max_cycle;Signal;HPM_P1;HPM_P2
2023/07/18 00:00:00;;;;;;;16.80;7.20;;;;;;;18.07;77.17;99766.23;220292;1254;140243;-67
2023/07/18 00:05:05;;;;;;;7.40;6.80;;;;;;;18.05;77.41;99783.98;220669;1256;139884;-67
2023/07/18 00:10:10;;;;;;;7.10;6.30;;;;;;;18.10;78.19;99809.04;220546;1254;140658;-68
2023/07/18 00:15:15;;;;;;;7.80;6.70;;;;;;;18.22;78.97;99826.77;220678;1254;139682;-67
2023/07/18 00:20:22;;;;;;;8.90;7.00;;;;;;;18.35;78.88;99847.90;218517;1254;139581;-68
2023/07/18 00:25:25;;;;;;;;;;;;;;;18.42;77.54;99858.58;218656;1254;514921;-66
2023/07/18 00:30:31;;;;;;;10.50;4.90;;;;;;;18.37;74.92;99873.84;219028;1254;126249;-68
2023/07/18 00:35:36;;;;;;;11.60;4.90;;;;;;;18.36;72.62;99889.18;218547;1254;140883;-68
2023/07/18 00:40:42;;;;;;;6.90;4.20;;;;;;;18.32;71.00;99907.69;219152;1254;140277;-68
2023/07/18 00:45:50;;;;;;;5.30;4.20;;;;;;;18.29;70.16;99931.95;218956;1258;140430;-67
2023/07/18 00:50:54;;;;;;;10.80;5.90;;;;;;;18.26;69.61;99953.60;218806;1254;142143;-68
2023/07/18 00:56:00;;;;;;;6.30;5.60;;;;;;;18.22;69.26;99976.45;218691;1254;139899;-67
2023/07/18 01:01:05;;;;;;;11.00;4.90;;;;;;;18.18;69.11;100002.21;218151;1254;139667;-68
2023/07/18 01:06:09;;;;;;;9.70;4.90;;;;;;;18.15;69.27;100004.93;218589;1254;141187;-67
2023/07/18 01:11:13;;;;;;;5.40;4.20;;;;;;;18.11;69.41;100023.34;217845;1259;140816;-69
2023/07/18 01:16:18;;;;;;;4.00;3.20;;;;;;;18.08;69.59;100021.24;218128;1254;140518;-67
2023/07/18 01:21:23;;;;;;;10.50;5.10;;;;;;;18.04;69.44;100013.29;218243;1255;140097;-67
2023/07/18 01:26:27;;;;;;;4.80;3.60;;;;;;;17.99;69.35;100020.34;218249;1254;139966;-67
2023/07/18 01:31:32;;;;;;;13.00;4.10;;;;;;;17.95;68.94;100006.60;219284;1254;139569;-68
2023/07/18 01:36:36;;;;;;;5.90;2.70;;;;;;;17.91;68.76;100013.67;218019;1260;139670;-64
2023/07/18 01:41:40;;;;;;;4.10;2.70;;;;;;;17.90;68.46;100012.13;219245;1254;139732;-68
2023/07/18 01:46:45;;;;;;;3.90;2.70;;;;;;;17.88;68.61;99986.83;218498;1255;139116;-68
2023/07/18 01:51:50;;;;;;;6.50;2.90;;;;;;;17.82;69.08;99988.41;218175;1254;139535;-69
2023/07/18 01:56:55;;;;;;;7.90;3.20;;;;;;;17.73;69.60;99976.27;218914;1254;140447;-68
2023/07/18 02:02:02;;;;;;;8.30;2.80;;;;;;;17.51;69.83;99953.99;220709;1254;140913;-68
2023/07/18 02:07:06;;;;;;;5.50;2.60;;;;;;;17.37;70.36;99935.56;219235;1254;139999;-68
2023/07/18 02:12:12;;;;;;;3.30;2.90;;;;;;;17.24;70.80;99935.27;220235;1254;140178;-68
2023/07/18 02:17:17;;;;;;;2.90;2.60;;;;;;;17.00;71.04;99934.73;220724;1254;141479;-70
2023/07/18 02:22:22;;;;;;;2.40;2.20;;;;;;;16.86;71.38;99942.72;218965;1254;139567;-69
2023/07/18 02:27:26;;;;;;;2.60;2.00;;;;;;;16.65;71.44;99947.95;218110;1254;139526;-66
2023/07/18 02:32:31;;;;;;;2.60;2.40;;;;;;;16.40;71.65;99954.27;219196;1254;139422;-67
2023/07/18 02:37:36;;;;;;;5.30;3.10;;;;;;;16.18;72.04;99955.20;218189;1254;139677;-66
2023/07/18 02:42:42;;;;;;;4.80;3.60;;;;;;;15.95;72.48;99955.02;218178;1254;140581;-68
2023/07/18 02:47:47;;;;;;;4.80;2.70;;;;;;;15.75;72.77;99959.80;218453;1254;140495;-68
2023/07/18 02:52:52;;;;;;;2.50;2.30;;;;;;;15.59;73.12;99964.19;217828;1254;140138;-67
2023/07/18 02:57:57;;;;;;;4.20;2.70;;;;;;;15.49;73.47;99972.19;218897;1254;139332;-67
2023/07/18 03:03:02;;;;;;;4.40;2.60;;;;;;;15.47;73.88;99979.64;219162;1254;140740;-68
2023/07/18 03:08:07;;;;;;;7.00;2.50;;;;;;;15.50;74.32;100001.96;218236;1254;210087;-68
2023/07/18 03:13:12;;;;;;;5.10;2.80;;;;;;;15.56;74.46;100010.89;219121;1254;140988;-68
2023/07/18 03:18:16;;;;;;;3.30;1.80;;;;;;;15.62;74.57;100004.56;219186;1254;139560;-68
2023/07/18 03:23:21;;;;;;;2.60;1.90;;;;;;;15.66;74.40;100010.23;218631;1254;139429;-69
2023/07/18 03:28:26;;;;;;;2.00;1.70;;;;;;;15.71;74.39;100013.48;217960;1254;139599;-67
2023/07/18 03:33:31;;;;;;;6.10;3.10;;;;;;;15.79;74.16;100020.89;219204;1254;141753;-67
2023/07/18 03:38:37;;;;;;;3.00;2.40;;;;;;;15.86;74.01;100031.41;219825;1254;140791;-70
2023/07/18 03:43:41;;;;;;;2.40;2.20;;;;;;;15.93;73.84;100030.08;219561;1254;139990;-70
2023/07/18 03:48:45;;;;;;;4.00;2.00;;;;;;;16.01;73.69;100042.05;218211;1257;140698;-70
2023/07/18 03:53:50;;;;;;;56.20;7.70;;;;;;;16.17;73.61;100056.27;220759;1254;140018;-68
2023/07/18 03:58:56;;;;;;;3.40;2.80;;;;;;;16.24;73.32;100053.70;220783;1254;141591;-68
2023/07/18 04:04:00;;;;;;;3.70;1.80;;;;;;;16.36;73.21;100051.86;220520;1254;139504;-64
2023/07/18 04:09:05;;;;;;;3.20;2.90;;;;;;;16.64;72.88;100059.27;220743;1254;139931;-66
2023/07/18 04:14:09;;;;;;;3.70;2.40;;;;;;;16.79;72.74;100068.61;220681;1254;142207;-65
2023/07/18 04:19:13;;;;;;;2.50;2.30;;;;;;;16.91;72.42;100071.36;219006;1254;139464;-65
2023/07/18 04:24:17;;;;;;;6.60;3.00;;;;;;;16.98;72.25;100078.59;218949;1256;140103;-67
2023/07/18 04:29:24;;;;;;;4.90;2.90;;;;;;;17.14;72.20;100087.27;218891;1258;140297;-67
2023/07/18 04:34:29;;;;;;;3.60;3.10;;;;;;;17.82;71.45;100093.45;217986;1254;139627;-67
2023/07/18 04:39:33;;;;;;;5.30;4.60;;;;;;;18.31;70.90;100102.10;219442;1254;140459;-65
2023/07/18 04:44:38;;;;;;;4.20;3.80;;;;;;;18.57;70.48;100112.89;219157;1254;139473;-64
2023/07/18 04:49:44;;;;;;;4.50;3.70;;;;;;;19.28;69.53;100128.48;218151;1254;139551;-64
2023/07/18 04:54:49;;;;;;;4.40;3.70;;;;;;;19.57;68.90;100137.77;218853;1254;140358;-65
2023/07/18 04:59:54;;;;;;;7.60;3.80;;;;;;;19.92;68.41;100138.04;218296;1254;139737;-64
2023/07/18 05:04:57;;;;;;;7.90;4.80;;;;;;;19.86;68.10;100141.24;218492;1254;140089;-65
2023/07/18 05:10:02;;;;;;;7.80;4.80;;;;;;;20.02;67.32;100147.50;218387;1254;139666;-67
2023/07/18 05:15:08;;;;;;;5.00;4.50;;;;;;;22.36;65.14;100142.98;218187;1254;139654;-66
2023/07/18 05:20:13;;;;;;;52.70;9.70;;;;;;;23.40;63.53;100142.36;218887;1256;139912;-66
2023/07/18 05:25:19;;;;;;;5.80;4.30;;;;;;;24.23;61.36;100143.09;218322;1254;140960;-66
2023/07/18 05:30:23;;;;;;;4.90;4.40;;;;;;;27.04;57.92;100144.40;217951;1254;139330;-65
2023/07/18 05:35:27;;;;;;;4.40;4.00;;;;;;;30.42;53.71;100146.28;219638;1254;139676;-65
2023/07/18 05:40:32;;;;;;;4.20;3.20;;;;;;;33.02;49.85;100156.88;219477;1254;139281;-65
2023/07/18 05:45:38;;;;;;;5.00;2.80;;;;;;;35.04;45.91;100168.66;218983;1254;138924;-66
2023/07/18 05:50:45;;;;;;;4.10;3.40;;;;;;;36.59;42.47;100177.63;219860;1254;139180;-66
2023/07/18 05:55:50;;;;;;;2.80;2.60;;;;;;;37.77;39.60;100174.52;219021;1254;139882;-66
2023/07/18 06:00:54;;;;;;;4.30;1.90;;;;;;;38.71;37.41;100177.00;220666;1254;140494;-66
2023/07/18 06:05:59;;;;;;;2.80;1.60;;;;;;;39.05;35.12;100183.30;220683;1254;141710;-70
2023/07/18 06:11:05;;;;;;;2.20;1.70;;;;;;;39.49;33.75;100186.63;219451;1254;138757;-70
2023/07/18 06:16:10;;;;;;;5.20;2.00;;;;;;;40.20;32.18;100196.01;219619;1254;138890;-70
2023/07/18 06:21:15;;;;;;;1.60;1.50;;;;;;;40.52;31.00;100193.15;218073;1254;138951;-65
2023/07/18 06:26:22;;;;;;;1.70;1.60;;;;;;;40.17;30.55;100199.98;219221;1254;139478;-71
2023/07/18 06:31:28;;;;;;;2.70;1.60;;;;;;;39.75;29.88;100201.26;218838;1254;138819;-72
2023/07/18 06:36:33;;;;;;;1.50;1.20;;;;;;;39.53;28.99;100206.09;218211;1255;141212;-70
2023/07/18 06:41:38;;;;;;;2.80;1.60;;;;;;;39.21;28.07;100201.59;219920;1255;140188;-68
2023/07/18 06:46:43;;;;;;;1.30;1.20;;;;;;;38.83;27.43;100206.23;218004;1254;139660;-67
2023/07/18 06:51:51;;;;;;;1.50;1.30;;;;;;;37.55;27.51;100214.53;218148;1254;140752;-70
2023/07/18 06:56:55;;;;;;;1.00;1.00;;;;;;;36.35;28.14;100212.73;218735;1254;139101;-70
2023/07/18 07:02:00;;;;;;;0.80;0.80;;;;;;;36.23;27.94;100215.77;218012;1254;140048;-70
2023/07/18 07:07:09;;;;;;;1.40;1.10;;;;;;;35.91;27.93;100211.11;219081;1254;139018;-69
2023/07/18 07:12:15;;;;;;;2.50;1.60;;;;;;;36.25;27.64;100209.47;218466;1254;139382;-67
2023/07/18 07:17:33;;;;;;;1.50;1.10;;;;;;;37.23;26.93;100215.98;218460;1257;139693;-68
2023/07/18 07:22:43;;;;;;;1.20;0.90;;;;;;;37.83;26.16;100221.35;218271;1256;141303;-67
2023/07/18 07:27:48;;;;;;;0.70;0.70;;;;;;;37.98;25.80;100222.27;219560;1258;139952;-69
2023/07/18 07:32:53;;;;;;;1.00;0.70;;;;;;;37.21;25.57;100219.55;218532;1256;140511;-69
2023/07/18 07:37:59;;;;;;;2.90;0.90;;;;;;;36.14;25.95;100220.73;219370;1254;141760;-69
2023/07/18 07:43:05;;;;;;;0.80;0.60;;;;;;;35.58;26.16;100223.39;218721;1254;139556;-69
2023/07/18 07:48:11;;;;;;;2.10;1.00;;;;;;;34.82;26.44;100225.07;218247;1256;140893;-68
2023/07/18 07:53:16;;;;;;;0.90;0.70;;;;;;;33.95;26.87;100227.90;218072;1254;140146;-66
2023/07/18 07:58:21;;;;;;;1.10;1.10;;;;;;;33.37;27.59;100228.27;220213;1254;139677;-68
2023/07/18 08:03:26;;;;;;;1.00;1.00;;;;;;;32.88;28.17;100222.88;220642;1254;141566;-69
2023/07/18 08:08:31;;;;;;;1.60;1.20;;;;;;;32.32;28.40;100222.29;220812;1254;139755;-69
2023/07/18 08:13:36;;;;;;;1.60;1.50;;;;;;;32.00;29.39;100227.17;219258;1254;139263;-68
2023/07/18 08:18:41;;;;;;;2.30;1.60;;;;;;;31.51;29.71;100224.19;218735;1254;140504;-67
2023/07/18 08:23:47;;;;;;;1.60;1.10;;;;;;;30.89;29.75;100221.97;218018;1254;140140;-67
2023/07/18 08:28:51;;;;;;;1.40;0.90;;;;;;;30.71;30.11;100215.59;218779;1254;140554;-69
2023/07/18 08:33:55;;;;;;;2.10;1.50;;;;;;;30.58;30.32;100210.71;218777;1257;139546;-69
2023/07/18 08:38:59;;;;;;;4.30;3.90;;;;;;;30.44;30.14;100206.05;218269;1254;140149;-68
2023/07/18 08:44:07;;;;;;;2.70;1.60;;;;;;;30.24;30.42;100205.80;219234;1256;140260;-69
2023/07/18 08:49:13;;;;;;;3.00;1.80;;;;;;;29.91;30.84;100201.48;218026;1258;139127;-71
2023/07/18 08:54:19;;;;;;;1.00;1.00;;;;;;;29.91;31.44;100203.59;218199;1254;139195;-70
2023/07/18 08:59:28;;;;;;;1.90;1.40;;;;;;;30.03;31.04;100205.11;218180;1254;139870;-69
2023/07/18 09:04:32;;;;;;;3.60;1.90;;;;;;;29.92;31.10;100207.39;218151;1254;139342;-69
2023/07/18 09:09:46;;;;;;;3.90;1.60;;;;;;;29.66;31.12;100202.23;218335;1255;139001;-69
2023/07/18 09:14:57;;;;;;;2.30;1.80;;;;;;;29.35;31.06;100198.28;218300;1256;139332;-69
2023/07/18 09:20:07;;;;;;;2.60;1.20;;;;;;;29.15;31.43;100194.09;218930;1254;141508;-69
2023/07/18 09:25:16;;;;;;;4.90;1.30;;;;;;;29.07;31.23;100185.71;218210;1254;139160;-70
2023/07/18 09:30:42;;;;;;;1.00;0.90;;;;;;;29.01;31.57;100185.15;219883;1254;139086;-70
2023/07/18 09:35:47;;;;;;;1.00;0.90;;;;;;;29.03;30.99;100182.46;219236;1254;139639;-69
2023/07/18 09:40:55;;;;;;;2.10;1.50;;;;;;;28.87;31.01;100186.61;219837;1254;140380;-68
2023/07/18 09:46:01;;;;;;;2.70;2.50;;;;;;;28.89;31.07;100178.88;220030;1254;139116;-69
2023/07/18 09:51:09;;;;;;;2.80;1.70;;;;;;;28.91;30.78;100175.10;220162;1253;139215;-68
2023/07/18 09:56:16;;;;;;;1.80;1.00;;;;;;;28.79;31.24;100172.84;220896;1253;140458;-69
2023/07/18 10:01:22;;;;;;;0.90;0.70;;;;;;;28.80;30.75;100161.59;220823;1255;140095;-70
2023/07/18 10:06:33;;;;;;;1.20;0.70;;;;;;;28.93;30.64;100167.97;220680;1254;138898;-69
2023/07/18 10:12:00;;;;;;;0.80;0.60;;;;;;;28.89;30.81;100166.42;218920;1254;139799;-70
2023/07/18 10:17:06;;;;;;;1.40;0.70;;;;;;;28.77;30.64;100154.77;219599;1254;139087;-68
2023/07/18 10:22:23;;;;;;;1.00;0.90;;;;;;;28.76;30.32;100148.28;217977;1254;139119;-68
2023/07/18 10:27:37;;;;;;;3.50;0.80;;;;;;;28.83;30.76;100144.19;219749;1254;140097;-70
2023/07/18 10:32:49;;;;;;;3.00;1.20;;;;;;;28.46;30.86;100148.32;218356;1258;141400;-69
2023/07/18 10:38:06;;;;;;;0.90;0.80;;;;;;;28.29;31.07;100136.28;218591;1254;139489;-69
2023/07/18 10:43:20;;;;;;;1.30;1.20;;;;;;;28.41;31.37;100125.20;218640;1257;139079;-69
2023/07/18 10:48:24;;;;;;;2.40;0.90;;;;;;;28.68;31.20;100120.88;218738;1254;139034;-68
2023/07/18 10:53:30;;;;;;;1.20;1.10;;;;;;;28.65;30.59;100117.94;218924;1254;139924;-69
2023/07/18 10:58:35;;;;;;;1.90;0.90;;;;;;;28.53;30.46;100117.73;217969;1257;139653;-69
2023/07/18 11:03:47;;;;;;;1.30;1.20;;;;;;;28.55;30.61;100111.22;218495;1254;139417;-70
2023/07/18 11:08:52;;;;;;;0.90;0.70;;;;;;;28.50;30.21;100103.84;218975;1257;140327;-69
2023/07/18 11:13:57;;;;;;;1.00;0.90;;;;;;;28.28;30.59;100099.09;218408;1258;138830;-69
2023/07/18 11:19:02;;;;;;;2.80;0.80;;;;;;;28.38;31.01;100088.39;218282;1257;139877;-68
2023/07/18 11:24:07;;;;;;;1.30;0.70;;;;;;;28.42;30.52;100081.45;219452;1257;139986;-69
2023/07/18 11:29:12;;;;;;;1.70;0.90;;;;;;;27.89;30.07;100085.45;219363;1255;139668;-69
2023/07/18 11:34:22;;;;;;;1.00;0.80;;;;;;;27.74;30.70;100080.84;219161;1254;139261;-68
2023/07/18 11:39:30;;;;;;;1.80;1.00;;;;;;;27.63;30.81;100073.64;218778;1254;138753;-69
2023/07/18 11:44:42;;;;;;;1.90;0.90;;;;;;;27.67;31.05;100064.48;218940;1256;138963;-70
2023/07/18 11:49:47;;;;;;;23.30;3.30;;;;;;;27.55;31.21;100061.67;219943;1254;139086;-72
2023/07/18 11:54:52;;;;;;;1.30;1.20;;;;;;;27.44;31.63;100056.10;221121;1254;139679;-69
2023/07/18 11:59:57;;;;;;;1.70;0.90;;;;;;;27.49;31.77;100059.64;220252;1253;139354;-70
2023/07/18 12:05:01;;;;;;;4.00;1.00;;;;;;;27.90;31.55;100059.66;221034;1253;139538;-68
2023/07/18 12:10:06;;;;;;;3.00;0.90;;;;;;;28.20;30.89;100046.92;219312;1254;139831;-68
2023/07/18 12:15:13;;;;;;;2.70;1.40;;;;;;;28.42;30.68;100042.20;219560;1253;139111;-69
2023/07/18 12:20:18;;;;;;;1.30;0.80;;;;;;;28.70;30.46;100036.03;219805;1258;139039;-69
2023/07/18 12:25:23;;;;;;;1.80;0.60;;;;;;;28.86;30.22;100028.61;218692;1258;211664;-70
2023/07/18 12:30:30;;;;;;;1.20;1.10;;;;;;;28.83;30.11;100016.49;218244;1258;138816;-70
2023/07/18 12:35:37;;;;;;;5.10;1.20;;;;;;;28.76;30.11;100008.61;218803;1257;139108;-69
2023/07/18 12:40:43;;;;;;;1.70;0.80;;;;;;;28.79;29.94;99997.82;218826;1254;139835;-70
2023/07/18 12:45:48;;;;;;;0.70;0.70;;;;;;;28.69;29.98;99995.98;219083;1258;139469;-69
2023/07/18 12:50:53;;;;;;;2.30;1.20;;;;;;;28.58;29.83;99993.86;218838;1254;139004;-70
2023/07/18 12:55:58;;;;;;;0.50;0.50;;;;;;;28.29;29.69;99995.96;218903;1254;139336;-70
2023/07/18 13:01:03;;;;;;;1.20;1.00;;;;;;;28.11;29.73;99993.63;218527;1253;139169;-70
2023/07/18 13:06:10;;;;;;;3.20;1.30;;;;;;;28.17;29.65;99996.22;218551;1258;138144;-70
2023/07/18 13:11:17;;;;;;;0.90;0.90;;;;;;;28.01;29.88;99996.52;219321;1254;141504;-70
2023/07/18 13:16:24;;;;;;;1.10;1.00;;;;;;;27.75;29.59;99986.09;218408;1257;206595;-69
2023/07/18 13:21:31;;;;;;;1.70;1.30;;;;;;;27.70;30.13;99975.14;219770;1254;139091;-70
2023/07/18 13:26:36;;;;;;;;;;;;;;;27.54;30.22;99984.70;218115;1255;138686;-69
2023/07/18 13:31:45;;;;;;;1.90;1.00;;;;;;;27.56;30.22;99976.08;219611;1254;125534;-70
2023/07/18 13:36:50;;;;;;;2.10;1.30;;;;;;;27.71;30.42;99965.06;220395;1255;139964;-72
2023/07/18 13:41:56;;;;;;;0.90;0.80;;;;;;;27.45;30.14;99955.69;220733;1257;139447;-73
2023/07/18 13:47:04;;;;;;;5.40;1.20;;;;;;;27.30;30.12;99948.48;220732;1254;141273;-72
2023/07/18 13:52:10;;;;;;;;;;;;;;;27.54;30.50;99936.34;220808;1254;138558;-73
2023/07/18 13:57:14;;;;;;;6.80;1.30;;;;;;;27.25;30.31;99939.77;220737;1254;126375;-69
2023/07/18 14:02:19;;;;;;;2.40;1.20;;;;;;;26.98;30.08;99936.36;218938;1254;139546;-67
2023/07/18 14:07:24;;;;;;;2.50;1.10;;;;;;;26.88;29.90;99925.32;219137;1257;139365;-71
2023/07/18 14:12:29;;;;;;;1.40;1.30;;;;;;;26.89;30.07;99919.29;219311;1254;139930;-68
2023/07/18 14:17:34;;;;;;;1.80;1.60;;;;;;;26.84;30.11;99917.58;219351;1255;139935;-71
2023/07/18 14:22:39;;;;;;;1.20;1.10;;;;;;;26.97;30.45;99908.59;219124;1259;139324;-74
2023/07/18 14:27:48;;;;;;;5.00;1.30;;;;;;;27.06;30.55;99900.28;217660;1255;140978;-70
2023/07/18 14:32:56;;;;;;;1.00;0.90;;;;;;;27.24;30.43;99912.67;218517;1257;139152;-71
2023/07/18 14:38:05;;;;;;;1.10;1.10;;;;;;;27.40;30.31;99911.87;218646;1254;230441;-71
2023/07/18 14:43:11;;;;;;;3.50;1.10;;;;;;;27.52;29.99;99918.58;218359;1258;139420;-70
2023/07/18 14:48:22;;;;;;;1.20;1.10;;;;;;;27.44;29.82;99927.58;217861;1258;140230;-69
2023/07/18 14:53:27;;;;;;;2.30;1.10;;;;;;;27.11;29.71;99930.99;218595;1255;139590;-70
2023/07/18 14:58:34;;;;;;;2.30;1.30;;;;;;;26.77;30.00;99917.87;219363;1255;138806;-66
2023/07/18 15:03:42;;;;;;;6.90;1.60;;;;;;;26.50;30.40;99908.19;219153;1257;139806;-69
2023/07/18 15:08:51;;;;;;;1.30;1.20;;;;;;;26.63;30.51;99898.01;219255;1259;139320;-68
2023/07/18 15:13:56;;;;;;;1.20;1.00;;;;;;;26.86;30.20;99895.22;218406;1257;139807;-68
2023/07/18 15:19:04;;;;;;;1.10;0.80;;;;;;;26.83;29.90;99889.97;219813;1257;139440;-69
2023/07/18 15:24:09;;;;;;;0.70;0.70;;;;;;;26.71;29.85;99885.86;218416;1258;140787;-71
2023/07/18 15:29:13;;;;;;;2.50;1.40;;;;;;;26.59;29.86;99885.60;220457;1254;138943;-72
2023/07/18 15:34:18;;;;;;;0.90;0.90;;;;;;;26.24;30.03;99877.81;219417;1254;138943;-66
2023/07/18 15:39:23;;;;;;;1.30;1.20;;;;;;;26.00;30.46;99881.29;219191;1254;139769;-70
2023/07/18 15:44:28;;;;;;;3.70;1.60;;;;;;;25.98;30.85;99874.64;220782;1254;139381;-72
2023/07/18 15:49:35;;;;;;;1.30;1.10;;;;;;;26.18;31.30;99871.34;219812;1254;140331;-66
2023/07/18 15:54:40;;;;;;;3.90;1.30;;;;;;;26.11;31.20;99876.33;219935;1255;139593;-72
2023/07/18 15:59:54;;;;;;;1.20;0.90;;;;;;;26.03;31.11;99876.92;220132;1259;140716;-70
2023/07/18 16:04:59;;;;;;;1.20;1.10;;;;;;;26.05;31.03;99876.95;219668;1257;140075;-73
2023/07/18 16:10:05;;;;;;;1.90;1.10;;;;;;;25.99;31.09;99873.98;219979;1254;139099;-71
2023/07/18 16:15:15;;;;;;;2.10;1.40;;;;;;;25.81;31.09;99865.27;220105;1255;139376;-70
2023/07/18 16:20:24;;;;;;;1.10;1.10;;;;;;;25.69;31.54;99857.02;220034;1256;139617;-72
2023/07/18 16:25:29;;;;;;;1.20;1.00;;;;;;;25.62;31.51;99843.93;218449;1259;139778;-72
2023/07/18 16:30:35;;;;;;;;;;;;;;;25.53;31.73;99846.86;218046;1259;139892;-72
2023/07/18 16:35:47;;;;;;;1.90;1.30;;;;;;;25.34;31.77;99851.13;218577;1258;126190;-69
2023/07/18 16:40:57;;;;;;;5.00;1.60;;;;;;;25.23;32.13;99849.90;219019;1254;139168;-70
2023/07/18 16:46:04;;;;;;;1.60;1.00;;;;;;;25.19;32.28;99845.23;218625;1259;139148;-72
2023/07/18 16:51:11;;;;;;;3.00;1.30;;;;;;;25.16;32.27;99840.83;218981;1254;138821;-67
2023/07/18 16:56:17;;;;;;;8.60;1.50;;;;;;;25.08;32.20;99832.70;219440;1255;139993;-69
2023/07/18 17:01:22;;;;;;;3.90;1.30;;;;;;;25.04;32.54;99831.02;218659;1259;139590;-70
2023/07/18 17:06:30;;;;;;;1.70;1.30;;;;;;;25.00;33.01;99822.18;217917;1255;139051;-70
2023/07/18 17:11:36;;;;;;;1.90;1.30;;;;;;;25.01;32.93;99811.88;219669;1254;138898;-71
2023/07/18 17:16:44;;;;;;;1.60;1.40;;;;;;;24.97;32.82;99803.11;218322;1254;139286;-67
2023/07/18 17:21:48;;;;;;;2.20;1.00;;;;;;;24.81;32.67;99794.58;219625;1255;138949;-69
2023/07/18 17:26:53;;;;;;;1.30;0.90;;;;;;;24.66;32.95;99792.02;219025;1254;139736;-69
2023/07/18 17:31:59;;;;;;;3.30;1.50;;;;;;;24.47;33.04;99779.00;219935;1254;139564;-72
2023/07/18 17:37:06;;;;;;;1.60;1.50;;;;;;;24.30;33.32;99768.17;218294;1259;140941;-69
2023/07/18 17:42:11;;;;;;;5.80;1.70;;;;;;;24.16;33.64;99766.02;218196;1260;139015;-69
2023/07/18 17:47:17;;;;;;;2.60;1.40;;;;;;;24.05;34.33;99764.35;220778;1254;140244;-70
2023/07/18 17:52:20;;;;;;;2.70;1.40;;;;;;;23.95;33.99;99754.64;220521;1254;139600;-70
2023/07/18 17:57:26;;;;;;;10.80;1.60;;;;;;;23.85;34.38;99752.67;219933;1254;139375;-73
2023/07/18 18:02:31;;;;;;;12.50;2.70;;;;;;;23.78;35.31;99758.52;220420;1254;140065;-69
2023/07/18 18:07:37;;;;;;;4.30;1.70;;;;;;;23.71;36.39;99758.52;219315;1254;139482;-65
2023/07/18 18:12:45;;;;;;;6.10;2.00;;;;;;;23.59;36.73;99757.56;219686;1254;139404;-68
2023/07/18 18:17:50;;;;;;;3.40;1.90;;;;;;;23.45;37.63;99754.43;217708;1257;139152;-79
2023/07/18 18:22:58;;;;;;;2.30;1.60;;;;;;;23.33;38.00;99757.29;217972;1256;138912;-65
2023/07/18 18:28:04;;;;;;;4.00;1.70;;;;;;;23.22;38.44;99768.30;218084;1254;139064;-67
2023/07/18 18:33:11;;;;;;;;;;;;;;;23.01;39.01;99771.58;218713;1254;140041;-66
2023/07/18 18:38:15;;;;;;;1.90;1.80;;;;;;;22.70;39.75;99766.66;218212;1254;126085;-69
2023/07/18 18:43:20;;;;;;;2.00;1.10;;;;;;;22.40;39.83;99771.83;218149;1258;140213;-66
2023/07/18 18:48:26;;;;;;;1.50;1.40;;;;;;;22.08;40.28;99774.71;219122;1254;139550;-66
2023/07/18 18:53:31;;;;;;;;;;;;;;;21.76;40.56;99782.58;218101;1259;140213;-73
2023/07/18 18:58:38;;;;;;;5.90;2.00;;;;;;;21.39;41.32;99788.41;219166;1254;124969;-69
2023/07/18 19:03:51;;;;;;;1.90;1.30;;;;;;;21.08;41.88;99785.97;217942;1259;139994;-65
2023/07/18 19:09:02;;;;;;;2.90;1.30;;;;;;;20.57;42.54;99782.09;217997;1260;139213;-66
2023/07/18 19:14:11;;;;;;;2.70;1.80;;;;;;;19.98;43.54;99778.32;218456;1254;139900;-66
2023/07/18 19:19:18;;;;;;;1.70;1.30;;;;;;;19.49;44.71;99777.22;218351;1257;140233;-69
2023/07/18 19:24:25;;;;;;;1.80;1.30;;;;;;;19.07;45.68;99784.48;218645;1254;138789;-65
2023/07/18 19:29:37;;;;;;;3.80;1.50;;;;;;;18.75;46.28;99779.67;219029;1254;139083;-70
2023/07/18 19:34:46;;;;;;;1.40;1.30;;;;;;;18.53;47.06;99779.67;219776;1254;139723;-73
2023/07/18 19:39:56;;;;;;;1.80;1.70;;;;;;;18.23;47.68;99789.40;219778;1254;139233;-74
2023/07/18 19:45:07;;;;;;;2.50;1.40;;;;;;;18.00;48.34;99789.16;218991;1256;139604;-69
2023/07/18 19:50:12;;;;;;;3.00;1.60;;;;;;;17.75;48.73;99788.16;219392;1254;139571;-68
2023/07/18 19:55:16;;;;;;;3.40;1.10;;;;;;;17.39;49.09;99785.89;219644;1254;140010;-64
2023/07/18 20:00:21;;;;;;;1.80;1.70;;;;;;;17.03;49.85;99784.02;218312;1259;138958;-72
2023/07/18 20:05:28;;;;;;;3.50;1.50;;;;;;;16.75;50.32;99778.20;220158;1254;140885;-68
2023/07/18 20:10:36;;;;;;;2.80;1.70;;;;;;;16.54;50.85;99778.92;219861;1254;139083;-67
2023/07/18 20:15:43;;;;;;;2.60;1.50;;;;;;;16.42;51.35;99784.28;218142;1259;139100;-66
2023/07/18 20:21:02;;;;;;;1.80;1.50;;;;;;;16.22;51.40;99785.06;220067;1254;140916;-71
2023/07/18 20:26:09;;;;;;;1.70;1.10;;;;;;;16.03;51.72;99791.68;220242;1254;140618;-67
2023/07/18 20:31:17;;;;;;;3.90;1.90;;;;;;;15.95;52.20;99796.20;220123;1254;139311;-66
2023/07/18 20:36:22;;;;;;;2.30;2.10;;;;;;;15.72;52.39;99795.20;219256;1254;140007;-66
2023/07/18 20:41:27;;;;;;;2.80;1.70;;;;;;;15.51;52.84;99796.23;219792;1254;139344;-70
2023/07/18 20:46:33;;;;;;;4.00;2.00;;;;;;;15.39;53.35;99798.76;218407;1257;139064;-74
2023/07/18 20:51:43;;;;;;;6.40;2.30;;;;;;;15.26;53.65;99786.48;218411;1254;139499;-76
2023/07/18 20:56:49;;;;;;;4.40;2.00;;;;;;;15.12;53.86;99783.80;218405;1254;138979;-66
2023/07/18 21:01:56;;;;;;;10.40;2.40;;;;;;;14.93;54.37;99784.10;219397;1254;140716;-71
2023/07/18 21:07:01;;;;;;;4.00;2.00;;;;;;;14.75;54.87;99777.95;218315;1255;140362;-68
2023/07/18 21:12:06;;;;;;;3.50;1.70;;;;;;;14.65;55.37;99778.45;218770;1254;140222;-69
2023/07/18 21:17:10;;;;;;;3.20;2.10;;;;;;;14.52;55.78;99779.92;218683;1254;139220;-67
2023/07/18 21:22:15;;;;;;;4.80;2.10;;;;;;;14.36;56.11;99781.20;218850;1254;139848;-68
2023/07/18 21:27:22;;;;;;;1.80;1.40;;;;;;;14.20;56.67;99776.73;219402;1254;139143;-68
2023/07/18 21:32:27;;;;;;;2.90;2.00;;;;;;;14.09;57.00;99769.56;219200;1254;138932;-69
2023/07/18 21:37:33;;;;;;;3.90;2.50;;;;;;;13.94;57.20;99755.58;217943;1257;139284;-69
2023/07/18 21:42:39;;;;;;;8.70;2.50;;;;;;;13.83;57.70;99749.80;219498;1254;138982;-75
2023/07/18 21:47:44;;;;;;;4.50;2.00;;;;;;;13.73;58.06;99754.22;220050;1254;139308;-72
2023/07/18 21:52:50;;;;;;;2.40;1.90;;;;;;;13.60;58.57;99754.90;220610;1254;140214;-73
2023/07/18 21:57:55;;;;;;;3.30;2.30;;;;;;;13.47;58.97;99756.81;218268;1254;140828;-76
2023/07/18 22:02:59;;;;;;;4.00;2.00;;;;;;;13.50;59.77;99760.15;220825;1254;139847;-74
2023/07/18 22:08:04;;;;;;;4.30;2.60;;;;;;;13.60;60.05;99756.99;219215;1254;139214;-71
2023/07/18 22:13:09;;;;;;;6.10;2.40;;;;;;;13.72;60.55;99750.90;220095;1254;141137;-74
2023/07/18 22:18:14;;;;;;;5.40;3.20;;;;;;;13.68;60.70;99745.55;220161;1254;140716;-72
2023/07/18 22:23:30;;;;;;;;;;;;;;;13.50;60.57;99743.46;218817;1254;139873;-68
2023/07/18 22:28:35;;;;;;;7.60;3.30;;;;;;;13.35;61.18;99737.31;218242;1258;127294;-68
2023/07/18 22:33:40;;;;;;;3.50;2.50;;;;;;;13.22;61.79;99731.50;218288;1259;139923;-68
2023/07/18 22:38:47;;;;;;;7.90;2.50;;;;;;;13.09;61.83;99727.27;219236;1258;139895;-67
2023/07/18 22:43:52;;;;;;;4.80;3.00;;;;;;;13.01;62.47;99722.63;218888;1254;140770;-67
2023/07/18 22:48:57;;;;;;;5.30;2.80;;;;;;;12.96;62.63;99716.25;218146;1257;139872;-67
2023/07/18 22:54:03;;;;;;;3.80;3.50;;;;;;;12.88;62.55;99711.49;218330;1254;139961;-67
2023/07/18 22:59:08;;;;;;;4.90;2.10;;;;;;;12.90;63.27;99707.02;218201;1254;139534;-67
2023/07/18 23:04:13;;;;;;;10.70;2.20;;;;;;;12.94;63.20;99702.95;217855;1259;141983;-70
2023/07/18 23:09:18;;;;;;;5.90;2.20;;;;;;;12.88;63.29;99699.14;218266;1254;209364;-67
2023/07/18 23:14:24;;;;;;;4.30;3.10;;;;;;;12.69;63.11;99701.50;219283;1254;139582;-67
2023/07/18 23:19:37;;;;;;;5.30;2.80;;;;;;;12.61;63.83;99697.98;219059;1255;139414;-71